Time;durP1;ratioP1;P1;durP2;ratioP2;P2;SDS_P1;SDS_P2;PMS_P1;PMS_P2;Temp;Humidity;BMP_temperature;BMP_pressure;BME280_temperature;BME280_humidity;BME280_pressure;Samples;Min_cycle;Max_cycle;Signal;HPM_P1;HPM_P2
2022/08/01 00:01:44;;;;;;;3.17;2.40;;;;;;;20.97;54.87;99563.03;5002392;28;20205;-76
2022/08/01 00:04:09;;;;;;;3.10;2.50;;;;;;;21.02;55.83;99575.88;5015683;28;20834;-76
2022/08/01 00:06:35;;;;;;;2.60;2.40;;;;;;;20.96;55.98;99563.19;5127802;23;20221;-76
2022/08/01 00:09:00;;;;;;;3.00;2.70;;;;;;;20.93;55.90;99572.38;4978846;28;20763;-76
2022/08/01 00:11:26;;;;;;;1.87;1.70;;;;;;;20.89;55.71;99576.38;4982930;28;20247;-76
2022/08/01 00:13:51;;;;;;;2.13;1.90;;;;;;;20.87;55.71;99573.00;4988014;28;20220;-76
2022/08/01 00:16:17;;;;;;;2.40;2.20;;;;;;;20.85;55.80;99569.69;4983421;28;20248;-76
2022/08/01 00:18:42;;;;;;;2.63;2.40;;;;;;;20.82;56.22;99569.16;4986177;28;20254;-76
2022/08/01 00:21:08;;;;;;;2.43;2.10;;;;;;;20.77;56.10;99577.69;4987009;28;20220;-76
2022/08/01 00:23:33;;;;;;;1.87;1.60;;;;;;;20.70;56.50;99572.16;4988309;28;20213;-76
2022/08/01 00:25:59;;;;;;;6.17;2.40;;;;;;;20.62;56.78;99580.16;4987116;28;20227;-76
2022/08/01 00:28:24;;;;;;;3.03;2.53;;;;;;;20.49;57.14;99583.25;4988109;28;21331;-76
2022/08/01 00:30:50;;;;;;;5.07;2.47;;;;;;;20.39;57.38;99579.91;4987377;28;20207;-75
2022/08/01 00:33:15;;;;;;;2.40;2.20;;;;;;;20.33;57.76;99583.19;4987581;28;20216;-75
2022/08/01 00:35:40;;;;;;;7.07;3.20;;;;;;;20.24;58.10;99589.50;4986556;28;20583;-76
2022/08/01 00:38:06;;;;;;;2.70;2.07;;;;;;;20.13;58.67;99584.44;4984504;28;20225;-76
2022/08/01 00:40:31;;;;;;;3.53;2.20;;;;;;;20.07;58.85;99593.94;4986204;28;20274;-75
2022/08/01 00:42:57;;;;;;;3.20;2.23;;;;;;;19.99;58.99;99594.72;4985731;28;20208;-76
2022/08/01 00:45:22;;;;;;;2.90;2.70;;;;;;;19.90;59.29;99592.97;4985875;28;20610;-75
2022/08/01 00:48:09;;;;;;;2.30;1.90;;;;;;;19.85;59.36;99587.31;4984408;28;20230;-75
2022/08/01 00:50:34;;;;;;;2.57;2.37;;;;;;;19.81;59.58;99586.78;4985754;28;20233;-75
2022/08/01 00:53:01;;;;;;;2.43;2.23;;;;;;;19.75;60.02;99587.41;4983553;28;20454;-76
2022/08/01 00:55:27;;;;;;;2.20;2.00;;;;;;;19.69;60.11;99587.22;4983430;28;20456;-76
2022/08/01 00:57:53;;;;;;;2.90;2.67;;;;;;;19.64;60.28;99591.13;4982726;28;20497;-75
2022/08/01 01:00:19;;;;;;;2.27;2.07;;;;;;;19.60;60.56;99587.09;4987068;28;20472;-75
2022/08/01 01:02:44;;;;;;;3.05;2.40;;;;;;;19.61;60.56;99591.44;4986444;28;20569;-76
2022/08/01 01:05:10;;;;;;;3.33;2.20;;;;;;;19.58;60.74;99593.59;4983574;28;20217;-76
2022/08/01 01:07:54;;;;;;;2.37;2.17;;;;;;;19.56;60.77;99593.75;4980836;28;20304;-76
2022/08/01 01:10:22;;;;;;;5.00;2.63;;;;;;;19.58;60.64;99590.94;4985833;28;20673;-76
2022/08/01 01:12:59;;;;;;;3.53;2.70;;;;;;;19.59;60.32;99588.09;4985704;28;20476;-76
2022/08/01 01:15:36;;;;;;;3.00;2.30;;;;;;;19.59;60.54;99598.75;4984719;28;20455;-76
2022/08/01 01:18:12;;;;;;;3.00;2.80;;;;;;;19.58;60.46;99589.09;4984583;28;20526;-75
2022/08/01 01:20:41;;;;;;;2.37;2.10;;;;;;;19.58;60.44;99589.09;4987015;28;20469;-76
2022/08/01 01:23:19;;;;;;;2.60;2.40;;;;;;;19.54;60.69;99593.06;4985690;28;20456;-76
2022/08/01 01:25:51;;;;;;;2.50;2.30;;;;;;;19.48;60.83;99598.19;4985687;28;20490;-75
2022/08/01 01:29:01;;;;;;;3.17;2.80;;;;;;;19.39;60.88;99597.28;4983787;28;20490;-75
2022/08/01 01:31:30;;;;;;;6.70;2.67;;;;;;;19.32;61.08;99593.56;4998603;28;20503;-75
2022/08/01 01:33:59;;;;;;;2.87;2.67;;;;;;;19.29;61.10;99585.88;4984320;28;20482;-76
2022/08/01 01:36:26;;;;;;;4.70;2.67;;;;;;;19.25;61.29;99593.31;4985048;28;20486;-75
2022/08/01 01:38:53;;;;;;;2.97;2.77;;;;;;;19.17;61.22;99591.47;4985493;28;20913;-76
2022/08/01 01:41:20;;;;;;;3.30;2.97;;;;;;;19.08;62.21;99588.84;4985739;28;21306;-75
2022/08/01 01:43:48;;;;;;;2.47;2.07;;;;;;;18.98;62.24;99595.13;4984122;28;20477;-75
2022/08/01 01:46:17;;;;;;;2.60;2.40;;;;;;;18.96;62.00;99601.56;4981909;28;20506;-75
2022/08/01 01:48:46;;;;;;;3.60;2.80;;;;;;;18.93;62.34;99597.38;4984364;28;20831;-75
2022/08/01 01:51:13;;;;;;;3.67;2.60;;;;;;;18.91;62.12;99599.34;4985564;28;20473;-75
2022/08/01 01:53:40;;;;;;;4.50;2.90;;;;;;;18.91;62.38;99598.53;4982989;28;20473;-75
2022/08/01 01:56:06;;;;;;;3.10;2.80;;;;;;;18.92;62.35;99592.19;4983145;28;20451;-75
2022/08/01 01:58:36;;;;;;;3.20;2.90;;;;;;;18.94;62.27;99601.72;4982078;28;20491;-75
2022/08/01 02:01:03;;;;;;;3.27;2.97;;;;;;;18.94;62.20;99593.72;4985306;28;20967;-76
2022/08/01 02:03:31;;;;;;;3.10;2.90;;;;;;;18.94;63.04;99596.38;4983468;28;20869;-75
2022/08/01 02:05:57;;;;;;;3.50;2.90;;;;;;;18.94;63.08;99596.38;4985149;28;20232;-75
2022/08/01 02:08:24;;;;;;;2.73;2.50;;;;;;;18.96;62.68;99593.59;4983347;28;20503;-75
2022/08/01 02:13:38;;;;;;;4.23;3.13;;;;;;;18.97;62.42;99593.41;4984623;28;20465;-75
2022/08/01 02:16:05;;;;;;;5.07;2.87;;;;;;;18.95;62.50;99597.22;4984906;28;20459;-75
2022/08/01 02:18:32;;;;;;;2.93;2.07;;;;;;;18.94;62.61;99598.22;4984772;28;20477;-75
2022/08/01 02:20:59;;;;;;;4.03;2.60;;;;;;;18.96;62.34;99597.09;4985729;28;20836;-75
2022/08/01 02:23:31;;;;;;;3.50;2.73;;;;;;;18.98;62.27;99586.25;4983360;28;20934;-76
2022/08/01 02:26:00;;;;;;;3.97;2.80;;;;;;;19.00;62.12;99594.94;4980316;28;20268;-76
2022/08/01 02:28:32;;;;;;;3.00;2.70;;;;;;;18.99;62.13;99593.28;4983657;28;20570;-75
2022/08/01 02:31:02;;;;;;;3.90;2.73;;;;;;;18.96;62.15;99589.09;4985417;28;20479;-75
2022/08/01 02:33:36;;;;;;;3.17;2.70;;;;;;;18.93;62.54;99592.06;4983292;28;20459;-75
2022/08/01 02:36:03;;;;;;;2.90;2.43;;;;;;;18.90;62.61;99597.69;4984074;28;20464;-75
2022/08/01 02:38:32;;;;;;;3.87;2.80;;;;;;;18.91;62.29;99587.88;4984566;28;20500;-75
2022/08/01 02:41:03;;;;;;;3.13;2.30;;;;;;;18.87;62.59;99592.66;4999420;28;20462;-75
2022/08/01 02:43:34;;;;;;;3.30;2.83;;;;;;;18.86;62.78;99598.13;4984448;28;20556;-75
2022/08/01 02:46:02;;;;;;;3.47;2.73;;;;;;;18.74;63.07;99595.69;4986637;28;20487;-75
2022/08/01 02:48:30;;;;;;;2.60;2.40;;;;;;;18.62;63.62;99596.03;4983257;28;20490;-75
2022/08/01 02:50:59;;;;;;;2.53;2.33;;;;;;;18.56;63.77;99598.28;4985034;28;20996;-75
2022/08/01 02:53:29;;;;;;;5.20;2.20;;;;;;;18.57;63.77;99593.81;4984912;28;20555;-75
2022/08/01 02:55:56;;;;;;;3.67;2.73;;;;;;;18.57;63.53;99593.81;4987307;28;20979;-75
2022/08/01 02:58:24;;;;;;;2.70;2.47;;;;;;;18.51;63.62;99591.75;4983754;28;20513;-75
2022/08/01 03:00:50;;;;;;;3.20;2.23;;;;;;;18.40;64.05;99589.28;4989309;28;20495;-76
2022/08/01 03:03:17;;;;;;;3.43;2.80;;;;;;;18.33;64.39;99597.88;4988899;28;20452;-75
2022/08/01 03:05:44;;;;;;;3.80;2.83;;;;;;;18.24;64.48;99590.75;4989373;28;20484;-75
2022/08/01 03:08:11;;;;;;;2.67;2.47;;;;;;;18.18;64.78;99590.53;4983422;28;20495;-75
2022/08/01 03:10:39;;;;;;;3.77;3.47;;;;;;;18.12;64.74;99598.09;4986985;28;20470;-75
2022/08/01 03:13:07;;;;;;;3.27;2.90;;;;;;;18.07;65.06;99588.91;4988065;28;20483;-76
2022/08/01 03:15:37;;;;;;;3.40;3.10;;;;;;;18.02;65.03;99594.63;4986748;28;20459;-76
2022/08/01 03:18:05;;;;;;;2.93;2.73;;;;;;;18.02;65.05;99591.97;4988698;28;20512;-75
2022/08/01 03:20:34;;;;;;;6.07;2.70;;;;;;;18.01;65.04;99595.63;4988726;28;20447;-76
2022/08/01 03:23:05;;;;;;;2.60;2.40;;;;;;;18.04;65.15;99590.03;4985741;28;20459;-76
2022/08/01 03:25:32;;;;;;;3.90;2.50;;;;;;;18.07;64.94;99591.56;4988477;28;20495;-76
2022/08/01 03:28:01;;;;;;;4.13;3.70;;;;;;;18.12;64.82;99586.63;4985479;28;20861;-76
2022/08/01 03:30:27;;;;;;;4.95;2.92;;;;;;;18.16;64.71;99589.81;4987351;28;20484;-76
2022/08/01 03:32:53;;;;;;;3.27;2.97;;;;;;;18.15;64.83;99589.00;4990248;28;20214;-76
2022/08/01 03:35:21;;;;;;;2.50;2.30;;;;;;;18.18;64.86;99594.00;4988704;28;20831;-76
2022/08/01 03:37:51;;;;;;;3.30;2.70;;;;;;;18.19;64.70;99587.69;4985421;28;20477;-76
2022/08/01 03:40:24;;;;;;;2.50;2.30;;;;;;;18.18;64.70;99595.84;4977691;28;20553;-76
2022/08/01 03:42:54;;;;;;;3.33;2.83;;;;;;;18.19;64.76;99592.19;4988092;28;20448;-75
2022/08/01 03:45:24;;;;;;;3.23;2.87;;;;;;;18.22;64.62;99592.72;4990275;28;21010;-76
2022/08/01 03:47:58;;;;;;;3.20;2.67;;;;;;;18.24;64.64;99590.75;4989525;28;20490;-75
2022/08/01 03:50:24;;;;;;;2.97;2.70;;;;;;;18.26;64.45;99590.63;4984010;28;20854;-76
2022/08/01 03:52:51;;;;;;;4.27;3.93;;;;;;;18.28;64.33;99592.16;4988537;28;20559;-76
2022/08/01 03:55:18;;;;;;;2.67;2.47;;;;;;;18.28;64.16;99581.53;4988155;28;20456;-76
2022/08/01 03:57:46;;;;;;;4.93;3.30;;;;;;;18.26;64.48;99583.47;4986745;28;20482;-76
2022/08/01 04:00:11;;;;;;;2.90;2.60;;;;;;;18.26;64.32;99578.16;4985713;28;20495;-76
2022/08/01 04:02:41;;;;;;;5.47;3.00;;;;;;;18.28;64.64;99581.53;4985327;28;20488;-76
2022/08/01 04:05:07;;;;;;;2.67;2.47;;;;;;;18.27;64.57;99579.00;4986302;28;20200;-76
2022/08/01 04:07:36;;;;;;;3.67;2.93;;;;;;;18.25;64.94;99576.47;4985707;28;20482;-76
2022/08/01 04:10:02;;;;;;;3.40;2.80;;;;;;;18.27;64.78;99579.00;4985464;28;21057;-75
2022/08/01 04:12:28;;;;;;;3.17;2.93;;;;;;;18.27;64.68;99573.69;4985660;28;20470;-75
2022/08/01 04:14:53;;;;;;;6.00;2.93;;;;;;;18.22;64.74;99581.25;4987510;28;20531;-76
2022/08/01 04:17:19;;;;;;;7.00;3.10;;;;;;;18.11;65.34;99583.13;5000964;28;20238;-75
2022/08/01 04:19:44;;;;;;;3.30;3.00;;;;;;;18.00;65.41;99591.28;4987025;28;20292;-75
2022/08/01 04:22:13;;;;;;;3.67;3.37;;;;;;;17.87;65.60;99590.75;4986986;28;20296;-75
2022/08/01 04:24:39;;;;;;;4.80;2.73;;;;;;;17.73;66.18;99585.88;4987897;28;20216;-75
2022/08/01 04:27:09;;;;;;;3.30;2.70;;;;;;;17.60;66.60;99591.50;4986075;28;20515;-76
2022/08/01 04:29:37;;;;;;;3.73;3.40;;;;;;;17.51;66.98;99597.69;4986106;28;21014;-75
2022/08/01 04:32:04;;;;;;;5.35;3.60;;;;;;;17.48;67.26;99593.50;4985210;28;20856;-76
2022/08/01 04:34:32;;;;;;;4.20;2.93;;;;;;;17.44;67.51;99603.56;4988555;28;20211;-76
2022/08/01 04:36:58;;;;;;;3.43;2.73;;;;;;;17.50;67.04;99601.28;4985519;28;20505;-76
2022/08/01 04:39:28;;;;;;;3.97;3.40;;;;;;;17.58;66.49;99604.06;4985197;28;20502;-75
2022/08/01 04:41:56;;;;;;;4.20;3.33;;;;;;;17.67;66.35;99600.59;4983138;28;20516;-76
2022/08/01 04:44:23;;;;;;;3.70;3.40;;;;;;;17.76;65.99;99602.38;4984946;28;20467;-75
2022/08/01 04:46:50;;;;;;;4.00;3.60;;;;;;;17.84;65.69;99602.50;4985186;28;20505;-76
2022/08/01 04:49:16;;;;;;;3.97;3.67;;;;;;;17.92;65.50;99602.63;4985474;28;20982;-76
2022/08/01 04:51:57;;;;;;;3.80;2.90;;;;;;;18.05;65.28;99601.47;4984915;28;20560;-76
2022/08/01 04:54:33;;;;;;;4.20;3.80;;;;;;;18.18;64.91;99604.66;4987742;28;20487;-76
2022/08/01 04:56:59;;;;;;;5.20;4.03;;;;;;;18.30;64.68;99602.63;4987098;28;21002;-76
2022/08/01 04:59:40;;;;;;;5.80;3.33;;;;;;;18.63;63.90;99603.84;4987543;28;20690;-76
2022/08/01 05:02:09;;;;;;;3.20;2.90;;;;;;;19.70;60.50;99594.22;4986560;28;20455;-76
2022/08/01 05:04:35;;;;;;;4.60;3.23;;;;;;;20.77;57.41;99583.03;4985292;28;20896;-76
2022/08/01 05:07:01;;;;;;;4.33;3.93;;;;;;;21.63;54.91;99585.25;4983236;28;20507;-77
2022/08/01 05:09:27;;;;;;;5.00;3.60;;;;;;;22.45;52.54;99584.19;4982561;28;20571;-77
2022/08/01 05:11:53;;;;;;;8.67;3.70;;;;;;;23.43;49.56;99583.53;4978918;28;20490;-77
2022/08/01 05:14:18;;;;;;;4.77;3.27;;;;;;;24.26;47.34;99579.00;4979926;28;20200;-77
2022/08/01 05:16:45;;;;;;;3.50;3.10;;;;;;;24.83;45.68;99580.94;4981767;28;20839;-77
2022/08/01 05:19:11;;;;;;;3.67;3.10;;;;;;;25.35;44.40;99579.78;4982232;28;20254;-77
2022/08/01 05:21:37;;;;;;;3.60;2.93;;;;;;;25.89;43.05;99577.53;4980972;28;20465;-77
2022/08/01 05:24:06;;;;;;;2.70;2.50;;;;;;;26.45;41.56;99577.38;4982383;28;20473;-77
2022/08/01 05:26:31;;;;;;;4.40;3.10;;;;;;;26.93;40.50;99577.34;4978631;28;20239;-77
2022/08/01 05:28:57;;;;;;;3.87;3.43;;;;;;;27.52;39.08;99581.16;4981580;28;20493;-77
2022/08/01 05:31:22;;;;;;;3.53;3.23;;;;;;;28.21;37.92;99577.91;4978920;28;20294;-77
2022/08/01 05:33:47;;;;;;;4.20;3.10;;;;;;;28.84;36.57;99579.09;4982021;28;20827;-77
2022/08/01 05:36:13;;;;;;;3.20;2.90;;;;;;;29.46;35.50;99576.59;4979027;28;20211;-77
2022/08/01 05:38:38;;;;;;;7.67;3.43;;;;;;;30.03;34.55;99573.75;4979394;28;20506;-76
2022/08/01 05:41:04;;;;;;;3.60;3.30;;;;;;;30.69;33.21;99567.56;4979522;28;20831;-76
2022/08/01 05:43:29;;;;;;;3.67;3.13;;;;;;;31.29;32.53;99559.34;4981983;28;20204;-77
2022/08/01 05:45:55;;;;;;;3.10;2.70;;;;;;;31.75;31.73;99562.34;4979259;28;20660;-77
2022/08/01 05:48:21;;;;;;;3.70;3.40;;;;;;;32.07;31.26;99562.78;4976161;28;20669;-77
2022/08/01 05:50:47;;;;;;;2.87;2.67;;;;;;;32.39;30.44;99563.19;4981989;28;20315;-76
2022/08/01 05:53:16;;;;;;;6.30;3.00;;;;;;;32.55;30.15;99566.25;4981708;28;20587;-76
2022/08/01 05:55:41;;;;;;;3.23;2.87;;;;;;;32.80;29.28;99563.97;4978651;28;20209;-76
2022/08/01 05:58:07;;;;;;;3.97;3.20;;;;;;;33.16;29.02;99559.19;4981883;28;20507;-76
2022/08/01 06:00:32;;;;;;;6.17;2.83;;;;;;;32.69;29.41;99564.88;4980942;28;20666;-77
2022/08/01 06:02:58;;;;;;;4.22;3.33;;;;;;;32.66;29.51;99572.69;4981757;28;20507;-77
2022/08/01 06:05:23;;;;;;;5.00;3.43;;;;;;;33.14;28.38;99564.06;4975683;28;20229;-76
2022/08/01 06:07:48;;;;;;;3.97;3.30;;;;;;;33.70;27.91;99564.97;4998908;23;20733;-75
2022/08/01 06:10:14;;;;;;;3.03;2.73;;;;;;;33.79;27.93;99565.34;4995470;28;20691;-75
2022/08/01 06:12:40;;;;;;;3.30;2.67;;;;;;;33.82;28.12;99564.84;4997038;28;20299;-75
2022/08/01 06:15:06;;;;;;;5.20;3.30;;;;;;;34.01;28.21;99565.38;4997840;28;20274;-75
2022/08/01 06:17:32;;;;;;;3.50;2.83;;;;;;;34.11;27.62;99565.53;4998397;28;20267;-75
2022/08/01 06:19:57;;;;;;;3.20;2.90;;;;;;;34.12;27.44;99555.47;4999600;28;20562;-74
2022/08/01 06:22:23;;;;;;;3.37;3.07;;;;;;;34.18;27.29;99559.06;4999950;28;20212;-75
2022/08/01 06:24:48;;;;;;;2.80;2.47;;;;;;;34.24;27.32;99563.50;4996997;28;20291;-75
2022/08/01 06:27:14;;;;;;;4.33;2.60;;;;;;;34.64;26.92;99565.06;4989912;28;20724;-75
2022/08/01 06:29:39;;;;;;;4.10;3.70;;;;;;;34.97;26.65;99559.41;5001200;28;20220;-75
2022/08/01 06:32:05;;;;;;;3.37;3.00;;;;;;;35.19;26.20;99561.25;5005500;28;20685;-74
2022/08/01 06:34:30;;;;;;;2.87;2.63;;;;;;;35.39;26.11;99560.59;4995887;28;20923;-75
2022/08/01 06:36:55;;;;;;;3.23;2.93;;;;;;;35.58;25.60;99558.28;5003932;28;20204;-75
2022/08/01 06:39:21;;;;;;;5.03;2.83;;;;;;;35.91;25.09;99557.09;5003993;28;20762;-77
2022/08/01 06:41:46;;;;;;;4.63;3.73;;;;;;;36.19;24.86;99557.81;4998106;28;20285;-76
2022/08/01 06:44:13;;;;;;;6.13;2.80;;;;;;;36.41;24.17;99549.41;4999810;28;20346;-77
2022/08/01 06:46:38;;;;;;;6.90;3.40;;;;;;;36.50;24.20;99555.97;5003516;28;20550;-76
2022/08/01 06:49:04;;;;;;;3.30;2.80;;;;;;;36.70;23.96;99558.81;5002279;28;20833;-76
2022/08/01 06:51:29;;;;;;;3.70;3.20;;;;;;;36.34;24.24;99555.94;5000823;28;20208;-76
2022/08/01 06:53:54;;;;;;;3.30;2.87;;;;;;;35.89;24.32;99549.19;5000035;28;20296;-76
2022/08/01 06:56:20;;;;;;;2.60;2.40;;;;;;;35.91;24.61;99557.09;5003775;28;20275;-76
2022/08/01 06:58:46;;;;;;;6.50;2.63;;;;;;;36.09;24.41;99553.94;5001848;28;20700;-76
2022/08/01 07:01:11;;;;;;;6.10;3.30;;;;;;;36.45;24.13;99553.22;5001542;28;20219;-76
2022/08/01 07:03:37;;;;;;;4.70;3.30;;;;;;;36.85;23.46;99557.19;4997185;28;20917;-77
2022/08/01 07:06:03;;;;;;;8.80;2.93;;;;;;;37.03;23.34;99551.19;5001747;28;20278;-76
2022/08/01 07:08:28;;;;;;;2.83;2.63;;;;;;;37.05;23.23;99554.50;5000942;28;20244;-77
2022/08/01 07:10:55;;;;;;;3.93;3.20;;;;;;;37.12;22.95;99548.72;5002857;28;20470;-76
2022/08/01 07:13:24;;;;;;;4.20;2.40;;;;;;;37.18;23.06;99545.69;5001704;28;20661;-76
2022/08/01 07:15:50;;;;;;;3.73;2.77;;;;;;;37.12;22.84;99549.53;5004201;28;20517;-76
2022/08/01 07:18:15;;;;;;;4.80;2.80;;;;;;;37.20;22.99;99556.38;4999601;28;20490;-76
2022/08/01 07:20:41;;;;;;;4.13;2.20;;;;;;;37.30;22.91;99550.09;5002648;28;20235;-78
2022/08/01 07:23:06;;;;;;;5.80;2.33;;;;;;;37.31;22.83;99549.00;5003055;28;20228;-76
2022/08/01 07:25:32;;;;;;;3.33;3.03;;;;;;;37.33;22.72;99555.03;4995947;28;20641;-76
2022/08/01 07:27:57;;;;;;;4.80;3.40;;;;;;;37.57;22.35;99547.88;4999393;28;20240;-76
2022/08/01 07:30:22;;;;;;;3.30;2.97;;;;;;;37.72;22.49;99538.78;5001276;28;20236;-76
2022/08/01 07:32:48;;;;;;;3.23;2.63;;;;;;;37.67;22.16;99541.53;5003991;28;20213;-76
2022/08/01 07:35:13;;;;;;;5.70;2.83;;;;;;;37.50;22.63;99541.03;4998682;28;20460;-76
2022/08/01 07:37:39;;;;;;;3.23;2.73;;;;;;;37.60;22.20;99541.03;4995809;28;20217;-76
2022/08/01 07:40:05;;;;;;;3.60;2.30;;;;;;;37.35;22.53;99537.22;5001197;28;20811;-76
2022/08/01 07:42:31;;;;;;;3.83;2.50;;;;;;;37.31;22.50;99538.03;5001718;28;20743;-76
2022/08/01 07:44:57;;;;;;;2.97;2.40;;;;;;;37.38;22.47;99541.31;4998478;28;20836;-76
2022/08/01 07:47:26;;;;;;;3.00;2.70;;;;;;;37.55;22.39;99532.81;5014021;28;20597;-76
2022/08/01 07:49:52;;;;;;;2.23;2.03;;;;;;;37.71;22.19;99537.16;5014363;28;20211;-76
2022/08/01 07:52:17;;;;;;;4.00;2.10;;;;;;;37.99;21.70;99537.63;5003602;28;20467;-75
2022/08/01 07:54:42;;;;;;;3.20;2.00;;;;;;;38.27;21.75;99530.66;4998191;28;20463;-76
2022/08/01 07:57:08;;;;;;;2.40;2.13;;;;;;;38.31;21.44;99526.22;4997763;28;20235;-76
2022/08/01 07:59:33;;;;;;;2.53;2.33;;;;;;;38.26;21.58;99523.50;5003077;28;20556;-76
2022/08/01 08:01:59;;;;;;;2.20;1.80;;;;;;;37.94;21.99;99527.47;5002665;28;20597;-76
2022/08/01 08:04:25;;;;;;;2.43;2.20;;;;;;;37.73;22.13;99523.19;5001272;28;20207;-76
2022/08/01 08:06:52;;;;;;;3.10;2.30;;;;;;;37.94;22.13;99521.97;4999868;28;20228;-76
2022/08/01 08:09:17;;;;;;;2.40;2.20;;;;;;;37.84;22.20;99528.34;5001293;28;20501;-76
2022/08/01 08:11:44;;;;;;;3.23;2.77;;;;;;;37.88;22.11;99516.81;5002897;28;20467;-76
2022/08/01 08:14:09;;;;;;;4.23;2.27;;;;;;;37.99;22.05;99522.00;4998040;28;20209;-76
2022/08/01 08:16:35;;;;;;;2.40;1.97;;;;;;;38.22;21.92;99517.78;5001661;28;20857;-76
2022/08/01 08:19:00;;;;;;;2.20;2.10;;;;;;;38.39;21.55;99522.88;5002570;28;20512;-76
2022/08/01 08:21:26;;;;;;;2.50;2.10;;;;;;;38.50;21.38;99519.00;5001987;28;20231;-76
2022/08/01 08:26:37;;;;;;;3.23;2.93;;;;;;;38.17;21.82;99517.00;5000389;28;20219;-75
2022/08/01 08:29:03;;;;;;;2.37;2.13;;;;;;;38.10;21.85;99516.47;5002140;28;20497;-76
2022/08/01 08:31:28;;;;;;;2.63;2.43;;;;;;;37.86;22.09;99519.81;5002092;28;20975;-76
2022/08/01 08:33:54;;;;;;;2.43;2.13;;;;;;;37.93;22.06;99514.88;5001667;28;20246;-75
2022/08/01 08:36:19;;;;;;;2.83;2.13;;;;;;;37.35;23.02;99523.50;4998737;28;20193;-76
2022/08/01 08:38:44;;;;;;;2.87;2.30;;;;;;;37.37;22.95;99523.22;5000684;28;20220;-75
2022/08/01 08:41:10;;;;;;;2.70;2.50;;;;;;;36.99;23.38;99522.69;5001962;28;20196;-76
2022/08/01 08:43:35;;;;;;;2.60;2.40;;;;;;;36.75;23.81;99519.66;5001553;28;20281;-75
2022/08/01 08:46:01;;;;;;;2.73;2.53;;;;;;;35.93;24.99;99521.31;4999702;28;20236;-76
2022/08/01 08:48:27;;;;;;;3.10;2.80;;;;;;;34.56;26.50;99517.22;5000702;28;20225;-76
2022/08/01 08:50:53;;;;;;;2.80;2.60;;;;;;;33.63;27.80;99520.72;5001296;28;20193;-75
2022/08/01 08:53:18;;;;;;;3.20;2.53;;;;;;;33.25;28.61;99516.88;5001283;28;20208;-75
2022/08/01 08:55:44;;;;;;;2.93;2.40;;;;;;;32.90;29.16;99517.09;5002374;28;20462;-76
2022/08/01 08:58:17;;;;;;;2.67;2.47;;;;;;;32.75;29.03;99512.19;4999340;28;20256;-75
2022/08/01 09:00:43;;;;;;;3.00;2.80;;;;;;;32.62;29.08;99517.94;4997271;28;20279;-76
2022/08/01 09:03:08;;;;;;;4.00;3.60;;;;;;;32.69;28.93;99521.34;5002196;28;20906;-76
2022/08/01 09:05:34;;;;;;;3.40;3.10;;;;;;;32.71;28.68;99516.50;4999039;28;20217;-75
2022/08/01 09:07:59;;;;;;;3.40;3.10;;;;;;;32.65;28.83;99520.19;4999345;28;20252;-75
2022/08/01 09:10:25;;;;;;;6.10;2.97;;;;;;;32.54;28.63;99524.63;4997993;28;20391;-75
2022/08/01 09:13:05;;;;;;;3.33;2.63;;;;;;;32.23;28.58;99519.63;4999594;28;20846;-75
2022/08/01 09:15:46;;;;;;;3.37;2.90;;;;;;;31.46;29.33;99509.81;5001046;28;20482;-75
2022/08/01 09:18:33;;;;;;;4.40;3.37;;;;;;;30.89;30.79;99518.47;4999670;28;20489;-75
2022/08/01 09:21:14;;;;;;;2.77;2.53;;;;;;;31.22;30.42;99511.69;5001904;28;20463;-75
2022/08/01 09:23:49;;;;;;;3.10;2.80;;;;;;;31.74;29.80;99523.50;4998394;28;20461;-75
2022/08/01 09:26:18;;;;;;;3.20;2.77;;;;;;;32.10;29.12;99521.56;5000434;28;20721;-75
2022/08/01 09:28:47;;;;;;;2.80;2.60;;;;;;;32.38;28.96;99514.50;4999446;28;20850;-75
2022/08/01 09:31:16;;;;;;;2.70;2.50;;;;;;;32.53;28.54;99516.69;5001353;28;20475;-75
2022/08/01 09:33:54;;;;;;;3.47;2.60;;;;;;;32.37;28.90;99516.38;5001775;28;20486;-75
2022/08/01 09:36:22;;;;;;;4.17;2.87;;;;;;;32.35;28.93;99517.69;5000156;28;20505;-75
2022/08/01 09:38:47;;;;;;;2.57;2.37;;;;;;;32.19;29.38;99519.31;5014572;28;20514;-75
2022/08/01 09:41:13;;;;;;;3.23;3.03;;;;;;;32.28;28.98;99504.25;4997380;28;20489;-75
2022/08/01 09:43:39;;;;;;;3.50;3.20;;;;;;;32.62;28.93;99509.78;5000041;28;20258;-76
2022/08/01 09:46:11;;;;;;;3.27;2.90;;;;;;;32.95;28.41;99509.03;5013404;28;20267;-75
2022/08/01 09:48:39;;;;;;;2.23;2.10;;;;;;;33.03;28.55;99507.81;4999680;28;20242;-75
2022/08/01 09:51:06;;;;;;;4.83;3.20;;;;;;;33.10;28.66;99508.47;4999334;28;20550;-75
2022/08/01 09:53:43;;;;;;;2.90;2.53;;;;;;;33.21;28.47;99504.81;4997918;28;21038;-76
2022/08/01 09:56:10;;;;;;;2.60;2.30;;;;;;;33.19;28.14;99501.53;5000600;28;20490;-75
2022/08/01 09:58:53;;;;;;;6.07;3.10;;;;;;;33.04;28.49;99499.38;4998017;28;21103;-75
2022/08/01 10:01:21;;;;;;;3.40;2.43;;;;;;;33.05;28.45;99497.50;4998795;28;20459;-75
2022/08/01 10:04:04;;;;;;;2.80;2.27;;;;;;;33.07;28.44;99498.06;4999727;28;20490;-75
2022/08/01 10:06:29;;;;;;;3.70;3.40;;;;;;;33.27;28.20;99495.69;5000570;28;20494;-75
2022/08/01 10:08:54;;;;;;;3.27;3.00;;;;;;;33.35;27.68;99493.59;4997089;28;20717;-75
2022/08/01 10:11:21;;;;;;;2.43;2.23;;;;;;;33.32;27.95;99484.03;4998614;28;20239;-75
2022/08/01 10:13:48;;;;;;;4.17;2.90;;;;;;;33.31;27.94;99487.00;4999727;28;20235;-75
2022/08/01 10:16:14;;;;;;;2.90;2.60;;;;;;;33.15;28.00;99486.78;4998286;28;20509;-75
2022/08/01 10:18:41;;;;;;;2.37;2.17;;;;;;;33.04;28.06;99485.78;4996345;28;20499;-75
2022/08/01 10:21:07;;;;;;;3.03;2.73;;;;;;;33.22;27.98;99473.81;5000255;28;20470;-75
2022/08/01 10:23:37;;;;;;;4.17;2.50;;;;;;;33.10;28.01;99475.81;4999145;28;20467;-75
2022/08/01 10:26:05;;;;;;;3.40;2.50;;;;;;;33.10;27.96;99470.34;4999448;28;20231;-75
2022/08/01 10:28:34;;;;;;;3.10;2.90;;;;;;;33.21;28.10;99465.91;4997454;28;20486;-75
2022/08/01 10:31:00;;;;;;;2.70;2.50;;;;;;;33.57;27.38;99459.09;4995770;28;20469;-75
2022/08/01 10:33:25;;;;;;;3.17;2.77;;;;;;;33.76;27.02;99456.88;4998414;28;20471;-75
2022/08/01 10:35:51;;;;;;;2.77;2.57;;;;;;;33.20;27.58;99459.63;4998333;28;20443;-75
2022/08/01 10:38:17;;;;;;;3.00;2.80;;;;;;;33.07;27.40;99454.53;4996760;28;20255;-75
2022/08/01 10:40:43;;;;;;;2.33;2.23;;;;;;;32.90;27.79;99459.97;4999054;28;20212;-76
2022/08/01 10:43:10;;;;;;;2.43;2.23;;;;;;;32.81;27.83;99453.25;4995653;28;20196;-75
2022/08/01 10:45:36;;;;;;;2.87;2.67;;;;;;;32.49;28.50;99462.00;5000190;28;20574;-75
2022/08/01 10:48:27;;;;;;;4.80;2.50;;;;;;;32.74;28.23;99456.16;4992004;28;20478;-75
2022/08/01 10:50:54;;;;;;;3.13;2.20;;;;;;;33.25;27.62;99456.16;4999381;28;20458;-75
2022/08/01 10:53:23;;;;;;;2.50;2.30;;;;;;;33.49;27.22;99452.16;5000281;28;20467;-76
2022/08/01 10:55:56;;;;;;;2.80;2.20;;;;;;;33.67;26.97;99447.50;5000189;28;20487;-75
2022/08/01 10:58:32;;;;;;;2.57;2.37;;;;;;;33.46;27.15;99449.94;4997316;28;20486;-75
2022/08/01 11:01:19;;;;;;;2.80;2.60;;;;;;;33.05;27.71;99435.75;4999019;28;20987;-75
2022/08/01 11:04:00;;;;;;;2.80;2.60;;;;;;;32.64;28.25;99442.38;4999915;28;20550;-76
2022/08/01 11:06:33;;;;;;;2.70;2.30;;;;;;;32.54;28.16;99434.91;4999055;28;20817;-76
2022/08/01 11:09:38;;;;;;;3.23;2.37;;;;;;;32.59;28.28;99426.84;4993291;28;20483;-77
2022/08/01 11:12:15;;;;;;;4.07;2.60;;;;;;;32.36;28.81;99433.19;4999131;28;20466;-76
2022/08/01 11:14:58;;;;;;;5.63;3.10;;;;;;;32.12;29.36;99437.09;4999754;28;20455;-75
2022/08/01 11:17:44;;;;;;;3.27;2.97;;;;;;;32.40;28.71;99434.31;5000878;28;20485;-76
2022/08/01 11:20:18;;;;;;;2.87;2.60;;;;;;;32.73;28.51;99427.31;5002953;28;20463;-75
2022/08/01 11:23:05;;;;;;;3.13;2.83;;;;;;;32.93;28.66;99413.22;5002340;28;20508;-75
2022/08/01 11:25:36;;;;;;;3.10;2.87;;;;;;;33.00;28.88;99416.63;4999351;28;20463;-75
2022/08/01 11:28:14;;;;;;;3.30;3.00;;;;;;;32.98;29.03;99409.75;5001353;28;20619;-75
2022/08/01 11:30:41;;;;;;;2.73;2.53;;;;;;;33.03;28.80;99413.41;5000784;28;20783;-75
2022/08/01 11:33:07;;;;;;;3.10;2.80;;;;;;;33.10;28.55;99410.50;5002120;28;20947;-76
2022/08/01 11:35:34;;;;;;;3.17;2.90;;;;;;;33.08;28.30;99407.22;5002259;28;20303;-75
2022/08/01 11:38:29;;;;;;;2.93;2.63;;;;;;;32.87;28.65;99411.50;5000498;28;20323;-75
2022/08/01 11:41:12;;;;;;;3.17;2.97;;;;;;;32.55;29.20;99406.63;5001769;28;20493;-76
2022/08/01 11:44:25;;;;;;;5.77;3.60;;;;;;;32.43;29.59;99405.00;5005008;28;20455;-75
2022/08/01 11:46:56;;;;;;;6.30;2.20;;;;;;;32.48;29.89;99397.78;5002503;28;20996;-76